Flight Track Log - Related Links

Times and Time Zones

All times are in EDT time to prevent confusion due to time zone crossing. See the TAM3812 flight status page for this flight to view local times or setup timezone preferences in your user account.

Time Position Orientation Groundspeed Altitude Reporting Facility
EDT Latitude Longitude Course Direction KTS MPH feet Rate Location/Type
Sun 09:27:00 PM -22.8801 -47.6127 310° West  Level Estimated
Sun 09:28:00 PM -22.8119 -47.6992 311° West  Level Estimated
Sun 09:29:00 PM -22.7437 -47.7856 311° West  Level Estimated
Sun 09:30:00 PM -22.6754 -47.8719 311° West  Level Estimated
Sun 09:31:00 PM -22.6071 -47.9581 311° West  Level Estimated
Sun 09:32:00 PM -22.5388 -48.0443 311° West  Level Estimated
Sun 09:33:00 PM -22.4704 -48.1304 311° West  Level Estimated
Sun 09:34:00 PM -22.4020 -48.2164 311° West  Level Estimated
Sun 09:35:00 PM -22.3335 -48.3022 311° West  Level Estimated
Sun 09:36:00 PM -22.2649 -48.3881 311° West  Level Estimated
Sun 09:37:00 PM -22.1964 -48.4738 311° West  Level Estimated
Sun 09:38:00 PM -22.1278 -48.5594 311° West  Level Estimated
Sun 09:39:00 PM -22.0591 -48.6450 311° West  Level Estimated
Sun 09:40:00 PM -21.9904 -48.7305 311° West  Level Estimated
Sun 09:41:00 PM -21.9216 -48.8159 311° West  Level Estimated
Sun 09:42:00 PM -21.8528 -48.9012 311° West  Level Estimated
Sun 09:43:00 PM -21.7840 -48.9864 311° West  Level Estimated
Sun 09:44:00 PM -21.7151 -49.0716 311° West  Level Estimated
Sun 09:45:00 PM -21.6462 -49.1567 311° West  Level Estimated
Sun 09:46:00 PM -21.5772 -49.2416 311° West  Level Estimated
Sun 09:47:00 PM -21.5082 -49.3266 311° West  Level Estimated
Sun 09:48:00 PM -21.4391 -49.4114 311° West  Level Estimated
Sun 09:49:00 PM -21.3701 -49.4961 311° West  Level Estimated
Sun 09:50:00 PM -21.3009 -49.5808 311° West  Level Estimated
Sun 09:51:00 PM -21.2317 -49.6654 311° West  Level Estimated
Sun 09:52:00 PM -21.1625 -49.7499 311° West  Level Estimated
Sun 09:53:00 PM -21.0932 -49.8343 311° West  Level Estimated
Sun 09:54:00 PM -21.0239 -49.9187 311° West  Level Estimated
Sun 09:55:00 PM -20.9546 -50.0030 311° West  Level Estimated
Sun 09:56:00 PM -20.8852 -50.0872 311° West  Level Estimated
Sun 09:57:00 PM -20.8158 -50.1713 311° West  Level Estimated
Sun 09:58:00 PM -20.7463 -50.2553 311° West  Level Estimated
Sun 09:59:00 PM -20.6768 -50.3393 311° West  Level Estimated
Sun 10:00:00 PM -20.6072 -50.4231 312° West  Level Estimated
Sun 10:01:00 PM -20.5376 -50.5070 312° West  Level Estimated
Sun 10:02:00 PM -20.4680 -50.5907 312° West  Level Estimated
Sun 10:03:00 PM -20.3983 -50.6744 312° West  Level Estimated
Sun 10:04:00 PM -20.3286 -50.7579 312° West  Level Estimated
Sun 10:05:00 PM -20.2588 -50.8414 312° West  Level Estimated
Sun 10:06:00 PM -20.1890 -50.9249 312° West  Level Estimated
Sun 10:07:00 PM -20.1192 -51.0082 312° West  Level Estimated
Sun 10:08:00 PM -20.0493 -51.0915 312° West  Level Estimated
Sun 10:09:00 PM -19.9794 -51.1747 312° West  Level Estimated
Sun 10:10:00 PM -19.9094 -51.2579 312° West  Level Estimated
Sun 10:11:00 PM -19.8395 -51.3409 312° West  Level Estimated
Sun 10:12:00 PM -19.7694 -51.4239 312° West  Level Estimated
Sun 10:13:00 PM -19.6994 -51.5068 312° West  Level Estimated
Sun 10:14:00 PM -19.6292 -51.5896 312° West  Level Estimated
Sun 10:15:00 PM -19.5591 -51.6724 312° West  Level Estimated
Sun 10:16:00 PM -19.4889 -51.7551 312° West  Level Estimated
Sun 10:17:00 PM -19.4187 -51.8377 312° West  Level Estimated
Sun 10:18:00 PM -19.3484 -51.9203 312° West  Level Estimated
Sun 10:19:00 PM -19.2782 -52.0028 312° West  Level Estimated
Sun 10:20:00 PM -19.2078 -52.0852 312° West  Level Estimated
Sun 10:21:00 PM -19.1375 -52.1675 312° West  Level Estimated
Sun 10:22:00 PM -19.0671 -52.2498 312° West  Level Estimated
Sun 10:23:00 PM -18.9966 -52.3320 312° West  Level Estimated
Sun 10:24:00 PM -18.9261 -52.4141 312° West  Level Estimated
Sun 10:25:00 PM -18.8556 -52.4962 312° West  Level Estimated
Sun 10:26:00 PM -18.7851 -52.5782 312° West  Level Estimated
Sun 10:27:00 PM -18.7145 -52.6601 312° West  Level Estimated
Sun 10:28:00 PM -18.6439 -52.7420 312° West  Level Estimated
Sun 10:29:00 PM -18.5732 -52.8237 312° West  Level Estimated
Sun 10:30:00 PM -18.5025 -52.9055 312° West  Level Estimated
Sun 10:31:00 PM -18.4318 -52.9871 312° West  Level Estimated
Sun 10:32:00 PM -18.3611 -53.0687 312° West  Level Estimated
Sun 10:33:00 PM -18.2903 -53.1502 312° West  Level Estimated
Sun 10:34:00 PM -18.2194 -53.2317 312° West  Level Estimated
Sun 10:35:00 PM -18.1486 -53.3131 312° West  Level Estimated
Sun 10:36:00 PM -18.0777 -53.3944 313° West  Level Estimated
Sun 10:37:00 PM -18.0068 -53.4756 313° West  Level Estimated
Sun 10:38:00 PM -17.9358 -53.5568 313° West  Level Estimated
Sun 10:39:00 PM -17.8648 -53.6379 313° West  Level Estimated
Sun 10:40:00 PM -17.7938 -53.7190 313° West  Level Estimated
Sun 10:41:00 PM -17.7227 -53.8000 313° West  Level Estimated
Sun 10:42:00 PM -17.6516 -53.8809 313° West  Level Estimated
Sun 10:43:00 PM -17.5805 -53.9618 313° West  Level Estimated
Sun 10:44:00 PM -17.5093 -54.0426 313° West  Level Estimated
Sun 10:45:00 PM -17.4381 -54.1233 313° West  Level Estimated
Sun 10:46:00 PM -17.3669 -54.2040 313° West  Level Estimated
Sun 10:47:00 PM -17.2956 -54.2846 313° West  Level Estimated
Sun 10:48:00 PM -17.2243 -54.3652 313° West  Level Estimated
Sun 10:49:00 PM -17.1530 -54.4457 313° West  Level Estimated
Sun 10:50:00 PM -17.0816 -54.5261 313° West  Level Estimated
Sun 10:51:00 PM -17.0102 -54.6065 313° West  Level Estimated
Sun 10:52:00 PM -16.9388 -54.6868 313° West  Level Estimated
Sun 10:53:00 PM -16.8674 -54.7670 313° West  Level Estimated
Sun 10:54:00 PM -16.7959 -54.8472 313° West  Level Estimated
Sun 10:55:00 PM -16.7244 -54.9273 313° West  Level Estimated
Sun 10:56:00 PM -16.6528 -55.0074 313° West  Level Estimated
Sun 10:57:00 PM -16.5812 -55.0874 313° West  Level Estimated
Sun 10:58:00 PM -16.5096 -55.1673 313° West  Level Estimated
Sun 10:59:00 PM -16.4380 -55.2472 313° West  Level Estimated
Sun 11:00:00 PM -16.3663 -55.3270 313° West  Level Estimated
Sun 11:01:00 PM -16.2946 -55.4068 313° West  Level Estimated
Sun 11:02:00 PM -16.2229 -55.4865 313° West  Level Estimated
Sun 11:03:00 PM -16.1511 -55.5661 313° West  Level Estimated
Sun 11:04:00 PM -16.0794 -55.6457 313° West  Level Estimated
Sun 11:05:00 PM -16.0075 -55.7253 313° West  Level Estimated
Sun 11:06:00 PM -15.9357 -55.8047 313° West  Level Estimated
Sun 11:07:00 PM -15.8638 -55.8842 313° West  Level Estimated
Sun 11:08:00 PM -15.7919 -55.9635 313° West  Level Estimated
Sun 11:09:00 PM -15.7200 -56.0428 313° West  Level Estimated
Sun 11:10:00 PM -15.6529 -56.1167 313° West  Level Estimated
Sun 11:11:00 PM -15.6529 -56.1167 136° Southeast  Level Estimated
Sun 11:12:00 PM -15.6529 -56.1167 136° Southeast  Level Estimated
Sun 11:13:00 PM -15.6529 -56.1167 136° Southeast  Level Estimated
Sun 11:14:00 PM -15.6529 -56.1167 136° Southeast  Level Estimated
Sun 11:15:00 PM -15.6529 -56.1167 136° Southeast  Level Estimated
Sun 11:16:00 PM -15.6529 -56.1167 136° Southeast  Level Estimated
Sun 11:17:00 PM -15.6529 -56.1167 136° Southeast  Level Estimated
Sun 11:18:00 PM -15.6529 -56.1167 136° Southeast  Level Estimated
Sun 11:19:00 PM -15.6529 -56.1167 136° Southeast  Level Estimated
Sun 11:20:00 PM -15.6529 -56.1167 136° Southeast  Level Estimated
Sun 11:21:00 PM -15.6529 -56.1167 136° Southeast  Level Estimated
Sun 11:22:00 PM -15.6529 -56.1167 136° Southeast  Level Estimated
Sun 11:23:00 PM -15.6529 -56.1167 136° Southeast  Level Estimated
Sun 11:24:00 PM -15.6529 -56.1167 136° Southeast  Level Estimated
Sun 11:25:00 PM -15.6529 -56.1167 136° Southeast  Level Estimated
Sun 11:26:00 PM -15.6529 -56.1167 136° Southeast  Level Estimated

Login

Don't have an account? Register now (free) for customized features, flight alerts, and more!